sensor_id;sensor_type;location;lat;lon;timestamp;temperature;humidity
33207;DHT22;19565;46.602;11.534;2024-02-04T00:00:19;6.30;99.90
33207;DHT22;19565;46.602;11.534;2024-02-04T00:02:47;6.20;99.90
33207;DHT22;19565;46.602;11.534;2024-02-04T00:05:16;6.10;99.90
33207;DHT22;19565;46.602;11.534;2024-02-04T00:07:45;6.10;99.90
33207;DHT22;19565;46.602;11.534;2024-02-04T00:10:15;6.10;99.90
33207;DHT22;19565;46.602;11.534;2024-02-04T00:12:44;6.10;99.90
33207;DHT22;19565;46.602;11.534;2024-02-04T00:15:13;6.00;99.90
33207;DHT22;19565;46.602;11.534;2024-02-04T00:17:41;6.00;99.90
33207;DHT22;19565;46.602;11.534;2024-02-04T00:20:10;6.00;99.90
33207;DHT22;19565;46.602;11.534;2024-02-04T00:22:38;6.10;99.90
33207;DHT22;19565;46.602;11.534;2024-02-04T00:25:07;6.00;99.90
33207;DHT22;19565;46.602;11.534;2024-02-04T00:27:40;5.90;99.90
33207;DHT22;19565;46.602;11.534;2024-02-04T00:30:09;5.90;99.90
33207;DHT22;19565;46.602;11.534;2024-02-04T00:32:37;5.90;99.90
33207;DHT22;19565;46.602;11.534;2024-02-04T00:35:06;5.90;99.90
33207;DHT22;19565;46.602;11.534;2024-02-04T00:37:34;5.90;99.90
33207;DHT22;19565;46.602;11.534;2024-02-04T00:40:03;5.90;99.90
33207;DHT22;19565;46.602;11.534;2024-02-04T00:42:32;5.90;99.90
33207;DHT22;19565;46.602;11.534;2024-02-04T00:45:01;5.80;99.90
33207;DHT22;19565;46.602;11.534;2024-02-04T00:47:30;5.70;99.90
33207;DHT22;19565;46.602;11.534;2024-02-04T00:49:58;5.80;99.90
33207;DHT22;19565;46.602;11.534;2024-02-04T00:52:26;5.80;99.90
33207;DHT22;19565;46.602;11.534;2024-02-04T00:54:54;5.90;99.90
33207;DHT22;19565;46.602;11.534;2024-02-04T00:57:23;5.90;99.90
33207;DHT22;19565;46.602;11.534;2024-02-04T00:59:52;5.80;99.90
33207;DHT22;19565;46.602;11.534;2024-02-04T01:02:22;5.70;99.90
33207;DHT22;19565;46.602;11.534;2024-02-04T01:04:50;5.60;99.90
33207;DHT22;19565;46.602;11.534;2024-02-04T01:07:19;5.60;99.90
33207;DHT22;19565;46.602;11.534;2024-02-04T01:09:47;5.60;99.90
33207;DHT22;19565;46.602;11.534;2024-02-04T01:12:15;5.60;99.90
33207;DHT22;19565;46.602;11.534;2024-02-04T01:14:43;5.60;99.90
33207;DHT22;19565;46.602;11.534;2024-02-04T01:17:12;5.60;99.90
33207;DHT22;19565;46.602;11.534;2024-02-04T01:19:43;5.70;99.90
33207;DHT22;19565;46.602;11.534;2024-02-04T01:22:11;5.70;99.90
33207;DHT22;19565;46.602;11.534;2024-02-04T01:24:40;5.70;99.90
33207;DHT22;19565;46.602;11.534;2024-02-04T01:27:08;5.80;99.90
33207;DHT22;19565;46.602;11.534;2024-02-04T01:29:36;5.90;99.90
33207;DHT22;19565;46.602;11.534;2024-02-04T01:32:05;5.90;99.90
33207;DHT22;19565;46.602;11.534;2024-02-04T01:34:35;5.80;99.90
33207;DHT22;19565;46.602;11.534;2024-02-04T01:37:05;5.70;99.90
33207;DHT22;19565;46.602;11.534;2024-02-04T01:39:33;5.60;99.90
33207;DHT22;19565;46.602;11.534;2024-02-04T01:42:02;5.60;99.90
33207;DHT22;19565;46.602;11.534;2024-02-04T01:44:30;5.50;99.90
33207;DHT22;19565;46.602;11.534;2024-02-04T01:46:58;5.40;99.90
33207;DHT22;19565;46.602;11.534;2024-02-04T01:49:27;5.40;99.90
33207;DHT22;19565;46.602;11.534;2024-02-04T01:51:57;5.40;99.90
33207;DHT22;19565;46.602;11.534;2024-02-04T01:54:27;5.40;99.90
33207;DHT22;19565;46.602;11.534;2024-02-04T01:56:58;5.40;99.90
33207;DHT22;19565;46.602;11.534;2024-02-04T01:59:29;5.40;99.90
33207;DHT22;19565;46.602;11.534;2024-02-04T02:01:59;5.40;99.90
33207;DHT22;19565;46.602;11.534;2024-02-04T02:04:28;5.40;99.90
33207;DHT22;19565;46.602;11.534;2024-02-04T02:06:56;5.30;99.90
33207;DHT22;19565;46.602;11.534;2024-02-04T02:09:28;5.30;99.90
33207;DHT22;19565;46.602;11.534;2024-02-04T02:12:03;5.30;99.90
33207;DHT22;19565;46.602;11.534;2024-02-04T02:14:37;5.40;99.90
33207;DHT22;19565;46.602;11.534;2024-02-04T02:17:11;5.40;99.90
33207;DHT22;19565;46.602;11.534;2024-02-04T02:19:50;5.40;99.90
33207;DHT22;19565;46.602;11.534;2024-02-04T02:22:26;5.30;99.90
33207;DHT22;19565;46.602;11.534;2024-02-04T02:24:58;5.10;99.90
33207;DHT22;19565;46.602;11.534;2024-02-04T02:27:27;4.90;99.90
33207;DHT22;19565;46.602;11.534;2024-02-04T02:29:56;4.90;99.90
33207;DHT22;19565;46.602;11.534;2024-02-04T02:32:24;5.00;99.90
33207;DHT22;19565;46.602;11.534;2024-02-04T02:34:52;5.00;99.90
33207;DHT22;19565;46.602;11.534;2024-02-04T02:37:27;4.90;99.90
33207;DHT22;19565;46.602;11.534;2024-02-04T02:40:00;4.90;99.90
33207;DHT22;19565;46.602;11.534;2024-02-04T02:42:32;5.00;99.90
33207;DHT22;19565;46.602;11.534;2024-02-04T02:45:01;5.10;99.90
33207;DHT22;19565;46.602;11.534;2024-02-04T02:47:30;5.20;99.90
33207;DHT22;19565;46.602;11.534;2024-02-04T02:50:00;5.20;99.90
33207;DHT22;19565;46.602;11.534;2024-02-04T02:52:29;5.20;99.90
33207;DHT22;19565;46.602;11.534;2024-02-04T02:54:58;5.20;99.90
33207;DHT22;19565;46.602;11.534;2024-02-04T02:57:26;5.20;99.90
33207;DHT22;19565;46.602;11.534;2024-02-04T02:59:55;5.20;99.90
33207;DHT22;19565;46.602;11.534;2024-02-04T03:02:23;5.30;99.90
33207;DHT22;19565;46.602;11.534;2024-02-04T03:04:54;5.20;99.90
33207;DHT22;19565;46.602;11.534;2024-02-04T03:07:24;5.20;99.90
33207;DHT22;19565;46.602;11.534;2024-02-04T03:09:53;5.10;99.90
33207;DHT22;19565;46.602;11.534;2024-02-04T03:12:23;5.10;99.90
33207;DHT22;19565;46.602;11.534;2024-02-04T03:14:51;5.10;99.90
33207;DHT22;19565;46.602;11.534;2024-02-04T03:17:19;5.10;99.90
33207;DHT22;19565;46.602;11.534;2024-02-04T03:19:49;5.00;99.90
33207;DHT22;19565;46.602;11.534;2024-02-04T03:22:19;4.80;99.90
33207;DHT22;19565;46.602;11.534;2024-02-04T03:24:48;4.70;99.90
33207;DHT22;19565;46.602;11.534;2024-02-04T03:27:17;4.70;99.90
33207;DHT22;19565;46.602;11.534;2024-02-04T03:29:47;4.70;99.90
33207;DHT22;19565;46.602;11.534;2024-02-04T03:32:15;4.70;99.90
33207;DHT22;19565;46.602;11.534;2024-02-04T03:34:43;4.70;99.90
33207;DHT22;19565;46.602;11.534;2024-02-04T03:37:12;4.80;99.90
33207;DHT22;19565;46.602;11.534;2024-02-04T03:39:40;4.80;99.90
33207;DHT22;19565;46.602;11.534;2024-02-04T03:42:08;4.80;99.90
33207;DHT22;19565;46.602;11.534;2024-02-04T03:44:37;4.90;99.90
33207;DHT22;19565;46.602;11.534;2024-02-04T03:47:06;4.90;99.90
33207;DHT22;19565;46.602;11.534;2024-02-04T03:49:35;4.90;99.90
33207;DHT22;19565;46.602;11.534;2024-02-04T03:52:03;4.90;99.90
33207;DHT22;19565;46.602;11.534;2024-02-04T03:54:32;4.90;99.90
33207;DHT22;19565;46.602;11.534;2024-02-04T03:57:00;5.00;99.90
33207;DHT22;19565;46.602;11.534;2024-02-04T03:59:29;4.90;99.90
33207;DHT22;19565;46.602;11.534;2024-02-04T04:01:57;4.90;99.90
33207;DHT22;19565;46.602;11.534;2024-02-04T04:04:27;4.80;99.90
33207;DHT22;19565;46.602;11.534;2024-02-04T04:06:57;4.80;99.90
33207;DHT22;19565;46.602;11.534;2024-02-04T04:09:25;4.80;99.90
33207;DHT22;19565;46.602;11.534;2024-02-04T04:11:54;4.80;99.90
33207;DHT22;19565;46.602;11.534;2024-02-04T04:14:22;4.90;99.90
33207;DHT22;19565;46.602;11.534;2024-02-04T04:16:50;4.90;99.90
33207;DHT22;19565;46.602;11.534;2024-02-04T04:19:19;4.80;99.90
33207;DHT22;19565;46.602;11.534;2024-02-04T04:21:49;4.80;99.90
33207;DHT22;19565;46.602;11.534;2024-02-04T04:24:17;4.70;99.90
33207;DHT22;19565;46.602;11.534;2024-02-04T04:26:49;4.60;99.90
33207;DHT22;19565;46.602;11.534;2024-02-04T04:29:17;4.70;99.90
33207;DHT22;19565;46.602;11.534;2024-02-04T04:31:45;4.80;99.90
33207;DHT22;19565;46.602;11.534;2024-02-04T04:34:14;4.80;99.90
33207;DHT22;19565;46.602;11.534;2024-02-04T04:36:42;4.80;99.90
33207;DHT22;19565;46.602;11.534;2024-02-04T04:39:12;4.60;99.90
33207;DHT22;19565;46.602;11.534;2024-02-04T04:41:44;4.50;99.90
33207;DHT22;19565;46.602;11.534;2024-02-04T04:44:13;4.40;99.90
33207;DHT22;19565;46.602;11.534;2024-02-04T04:46:41;4.40;99.90
33207;DHT22;19565;46.602;11.534;2024-02-04T04:49:09;4.40;99.90
33207;DHT22;19565;46.602;11.534;2024-02-04T04:51:38;4.50;99.90
33207;DHT22;19565;46.602;11.534;2024-02-04T04:54:06;4.50;99.90
33207;DHT22;19565;46.602;11.534;2024-02-04T04:56:39;4.40;99.90
33207;DHT22;19565;46.602;11.534;2024-02-04T04:59:09;4.40;99.90
33207;DHT22;19565;46.602;11.534;2024-02-04T05:01:40;4.40;99.90
33207;DHT22;19565;46.602;11.534;2024-02-04T05:04:12;4.50;99.90
33207;DHT22;19565;46.602;11.534;2024-02-04T05:06:41;4.50;99.90
33207;DHT22;19565;46.602;11.534;2024-02-04T05:09:09;4.50;99.90
33207;DHT22;19565;46.602;11.534;2024-02-04T05:11:39;4.50;99.90
33207;DHT22;19565;46.602;11.534;2024-02-04T05:14:07;4.50;99.90
33207;DHT22;19565;46.602;11.534;2024-02-04T05:16:36;4.50;99.90
33207;DHT22;19565;46.602;11.534;2024-02-04T05:19:04;4.50;99.90
33207;DHT22;19565;46.602;11.534;2024-02-04T05:21:33;4.50;99.90
33207;DHT22;19565;46.602;11.534;2024-02-04T05:24:01;4.60;99.90
33207;DHT22;19565;46.602;11.534;2024-02-04T05:26:29;4.60;99.90
33207;DHT22;19565;46.602;11.534;2024-02-04T05:28:59;4.70;99.90
33207;DHT22;19565;46.602;11.534;2024-02-04T05:31:27;4.60;99.90
33207;DHT22;19565;46.602;11.534;2024-02-04T05:33:56;4.40;99.90
33207;DHT22;19565;46.602;11.534;2024-02-04T05:36:24;4.30;99.90
33207;DHT22;19565;46.602;11.534;2024-02-04T05:38:52;4.30;99.90
33207;DHT22;19565;46.602;11.534;2024-02-04T05:41:21;4.40;99.90
33207;DHT22;19565;46.602;11.534;2024-02-04T05:43:49;4.50;99.90
33207;DHT22;19565;46.602;11.534;2024-02-04T05:46:19;4.50;99.90
33207;DHT22;19565;46.602;11.534;2024-02-04T05:48:47;4.50;99.90
33207;DHT22;19565;46.602;11.534;2024-02-04T05:51:16;4.40;99.90
33207;DHT22;19565;46.602;11.534;2024-02-04T05:53:45;4.50;99.90
33207;DHT22;19565;46.602;11.534;2024-02-04T05:56:13;4.50;99.90
33207;DHT22;19565;46.602;11.534;2024-02-04T05:58:41;4.50;99.90
33207;DHT22;19565;46.602;11.534;2024-02-04T06:01:09;4.60;99.90
33207;DHT22;19565;46.602;11.534;2024-02-04T06:03:41;4.70;99.90
33207;DHT22;19565;46.602;11.534;2024-02-04T06:06:14;4.80;99.90
33207;DHT22;19565;46.602;11.534;2024-02-04T06:08:42;4.80;99.90
33207;DHT22;19565;46.602;11.534;2024-02-04T06:11:11;4.80;99.90
33207;DHT22;19565;46.602;11.534;2024-02-04T06:13:41;4.90;99.90
33207;DHT22;19565;46.602;11.534;2024-02-04T06:16:10;4.80;99.90
33207;DHT22;19565;46.602;11.534;2024-02-04T06:18:40;4.60;99.90
33207;DHT22;19565;46.602;11.534;2024-02-04T06:21:08;4.40;99.90
33207;DHT22;19565;46.602;11.534;2024-02-04T06:23:38;4.30;99.90
33207;DHT22;19565;46.602;11.534;2024-02-04T06:26:06;4.40;99.90
33207;DHT22;19565;46.602;11.534;2024-02-04T06:28:35;4.40;99.90
33207;DHT22;19565;46.602;11.534;2024-02-04T06:31:04;4.40;99.90
33207;DHT22;19565;46.602;11.534;2024-02-04T06:33:32;4.30;99.90
33207;DHT22;19565;46.602;11.534;2024-02-04T06:36:02;4.20;99.90
33207;DHT22;19565;46.602;11.534;2024-02-04T06:38:31;4.20;99.90
33207;DHT22;19565;46.602;11.534;2024-02-04T06:40:59;4.20;99.90
33207;DHT22;19565;46.602;11.534;2024-02-04T06:43:27;4.00;99.90
33207;DHT22;19565;46.602;11.534;2024-02-04T06:45:57;3.90;99.90
33207;DHT22;19565;46.602;11.534;2024-02-04T06:48:25;3.90;99.90
33207;DHT22;19565;46.602;11.534;2024-02-04T06:50:53;4.00;99.90
33207;DHT22;19565;46.602;11.534;2024-02-04T06:53:23;4.00;99.90
33207;DHT22;19565;46.602;11.534;2024-02-04T06:55:51;4.10;99.90
33207;DHT22;19565;46.602;11.534;2024-02-04T06:58:19;4.10;99.90
33207;DHT22;19565;46.602;11.534;2024-02-04T07:00:48;4.10;99.90
33207;DHT22;19565;46.602;11.534;2024-02-04T07:03:16;4.30;99.90
33207;DHT22;19565;46.602;11.534;2024-02-04T07:05:45;4.40;99.90
33207;DHT22;19565;46.602;11.534;2024-02-04T07:08:14;4.30;99.90
33207;DHT22;19565;46.602;11.534;2024-02-04T07:10:44;4.40;99.90
33207;DHT22;19565;46.602;11.534;2024-02-04T07:13:12;4.40;99.90
33207;DHT22;19565;46.602;11.534;2024-02-04T07:15:41;4.50;99.90
33207;DHT22;19565;46.602;11.534;2024-02-04T07:18:09;4.60;99.90
33207;DHT22;19565;46.602;11.534;2024-02-04T07:20:38;4.70;99.90
33207;DHT22;19565;46.602;11.534;2024-02-04T07:23:06;4.70;99.90
33207;DHT22;19565;46.602;11.534;2024-02-04T07:25:37;4.70;99.90
33207;DHT22;19565;46.602;11.534;2024-02-04T07:28:07;4.70;99.90
33207;DHT22;19565;46.602;11.534;2024-02-04T07:30:35;4.70;99.90
33207;DHT22;19565;46.602;11.534;2024-02-04T07:33:04;4.70;99.90
33207;DHT22;19565;46.602;11.534;2024-02-04T07:35:33;4.70;99.90
33207;DHT22;19565;46.602;11.534;2024-02-04T07:38:01;4.60;99.90
33207;DHT22;19565;46.602;11.534;2024-02-04T07:40:29;4.60;99.90
33207;DHT22;19565;46.602;11.534;2024-02-04T07:42:58;4.70;99.90
33207;DHT22;19565;46.602;11.534;2024-02-04T07:45:28;4.80;99.90
33207;DHT22;19565;46.602;11.534;2024-02-04T07:47:56;4.80;99.90
33207;DHT22;19565;46.602;11.534;2024-02-04T07:50:25;4.80;99.90
33207;DHT22;19565;46.602;11.534;2024-02-04T07:52:53;4.80;99.90
33207;DHT22;19565;46.602;11.534;2024-02-04T07:55:21;4.80;99.90
33207;DHT22;19565;46.602;11.534;2024-02-04T07:57:55;4.70;99.90
33207;DHT22;19565;46.602;11.534;2024-02-04T08:00:23;4.70;99.90
33207;DHT22;19565;46.602;11.534;2024-02-04T08:02:54;4.70;99.90
33207;DHT22;19565;46.602;11.534;2024-02-04T08:05:23;4.80;99.90
33207;DHT22;19565;46.602;11.534;2024-02-04T08:07:51;4.90;99.90
33207;DHT22;19565;46.602;11.534;2024-02-04T08:10:20;4.90;99.90
33207;DHT22;19565;46.602;11.534;2024-02-04T08:12:48;4.90;99.90
33207;DHT22;19565;46.602;11.534;2024-02-04T08:15:18;4.90;99.90
33207;DHT22;19565;46.602;11.534;2024-02-04T08:17:46;4.80;99.90
33207;DHT22;19565;46.602;11.534;2024-02-04T08:20:17;4.90;99.90
33207;DHT22;19565;46.602;11.534;2024-02-04T08:22:46;4.90;99.90
33207;DHT22;19565;46.602;11.534;2024-02-04T08:25:15;4.80;99.90
33207;DHT22;19565;46.602;11.534;2024-02-04T08:27:43;4.90;99.90
33207;DHT22;19565;46.602;11.534;2024-02-04T08:30:12;5.00;99.90
33207;DHT22;19565;46.602;11.534;2024-02-04T08:32:40;5.10;99.90
33207;DHT22;19565;46.602;11.534;2024-02-04T08:35:09;5.10;99.90
33207;DHT22;19565;46.602;11.534;2024-02-04T08:37:39;5.20;99.90
33207;DHT22;19565;46.602;11.534;2024-02-04T08:40:09;5.20;99.90
33207;DHT22;19565;46.602;11.534;2024-02-04T08:42:38;5.20;99.90
33207;DHT22;19565;46.602;11.534;2024-02-04T08:45:08;5.20;99.90
33207;DHT22;19565;46.602;11.534;2024-02-04T08:47:36;5.20;99.90
33207;DHT22;19565;46.602;11.534;2024-02-04T08:50:05;5.30;99.90
33207;DHT22;19565;46.602;11.534;2024-02-04T08:52:34;5.40;99.90
33207;DHT22;19565;46.602;11.534;2024-02-04T08:55:05;5.40;99.90
33207;DHT22;19565;46.602;11.534;2024-02-04T08:57:33;5.40;99.90
33207;DHT22;19565;46.602;11.534;2024-02-04T09:00:02;5.50;99.90
33207;DHT22;19565;46.602;11.534;2024-02-04T09:02:31;5.50;99.90
33207;DHT22;19565;46.602;11.534;2024-02-04T09:05:00;5.50;99.90
33207;DHT22;19565;46.602;11.534;2024-02-04T09:07:28;5.60;99.90
33207;DHT22;19565;46.602;11.534;2024-02-04T09:10:00;5.60;99.90
33207;DHT22;19565;46.602;11.534;2024-02-04T09:12:30;5.60;99.90
33207;DHT22;19565;46.602;11.534;2024-02-04T09:14:59;5.70;99.90
33207;DHT22;19565;46.602;11.534;2024-02-04T09:17:27;5.70;99.90
33207;DHT22;19565;46.602;11.534;2024-02-04T09:19:57;5.80;99.90
33207;DHT22;19565;46.602;11.534;2024-02-04T09:22:25;5.90;99.90
33207;DHT22;19565;46.602;11.534;2024-02-04T09:24:54;5.90;99.90
33207;DHT22;19565;46.602;11.534;2024-02-04T09:27:22;6.00;99.90
33207;DHT22;19565;46.602;11.534;2024-02-04T09:29:52;6.00;99.90
33207;DHT22;19565;46.602;11.534;2024-02-04T09:32:22;6.10;99.90
33207;DHT22;19565;46.602;11.534;2024-02-04T09:34:50;6.10;99.90
33207;DHT22;19565;46.602;11.534;2024-02-04T09:37:19;6.20;99.90
33207;DHT22;19565;46.602;11.534;2024-02-04T09:39:48;6.20;99.90
33207;DHT22;19565;46.602;11.534;2024-02-04T09:42:19;6.30;99.90
33207;DHT22;19565;46.602;11.534;2024-02-04T09:44:49;6.30;99.90
33207;DHT22;19565;46.602;11.534;2024-02-04T09:47:20;6.40;99.90
33207;DHT22;19565;46.602;11.534;2024-02-04T09:49:48;6.40;99.90
33207;DHT22;19565;46.602;11.534;2024-02-04T09:52:22;6.40;99.90
33207;DHT22;19565;46.602;11.534;2024-02-04T09:54:58;6.50;99.90
33207;DHT22;19565;46.602;11.534;2024-02-04T09:57:29;6.50;99.90
33207;DHT22;19565;46.602;11.534;2024-02-04T09:59:57;6.60;99.90
33207;DHT22;19565;46.602;11.534;2024-02-04T10:02:27;6.70;99.90
33207;DHT22;19565;46.602;11.534;2024-02-04T10:04:56;6.80;99.90
33207;DHT22;19565;46.602;11.534;2024-02-04T10:07:24;6.90;99.90
33207;DHT22;19565;46.602;11.534;2024-02-04T10:09:54;7.00;99.90
33207;DHT22;19565;46.602;11.534;2024-02-04T10:12:23;7.00;99.90
33207;DHT22;19565;46.602;11.534;2024-02-04T10:14:51;7.10;99.90
33207;DHT22;19565;46.602;11.534;2024-02-04T10:17:20;7.20;99.90
33207;DHT22;19565;46.602;11.534;2024-02-04T10:19:49;7.20;99.90
33207;DHT22;19565;46.602;11.534;2024-02-04T10:22:18;7.40;99.90
33207;DHT22;19565;46.602;11.534;2024-02-04T10:24:47;7.50;99.80
33207;DHT22;19565;46.602;11.534;2024-02-04T10:27:15;7.60;99.60
33207;DHT22;19565;46.602;11.534;2024-02-04T10:29:58;7.70;99.10
33207;DHT22;19565;46.602;11.534;2024-02-04T10:32:26;7.80;99.40
33207;DHT22;19565;46.602;11.534;2024-02-04T10:34:57;7.90;99.10
33207;DHT22;19565;46.602;11.534;2024-02-04T10:37:26;8.00;98.60
33207;DHT22;19565;46.602;11.534;2024-02-04T10:39:56;8.10;98.30
33207;DHT22;19565;46.602;11.534;2024-02-04T10:42:25;8.10;98.10
33207;DHT22;19565;46.602;11.534;2024-02-04T10:44:55;8.20;97.60
33207;DHT22;19565;46.602;11.534;2024-02-04T10:47:30;8.40;97.30
33207;DHT22;19565;46.602;11.534;2024-02-04T10:50:03;8.60;96.70
33207;DHT22;19565;46.602;11.534;2024-02-04T10:52:36;8.70;96.50
33207;DHT22;19565;46.602;11.534;2024-02-04T10:55:07;8.90;96.50
33207;DHT22;19565;46.602;11.534;2024-02-04T10:57:37;8.90;96.50
33207;DHT22;19565;46.602;11.534;2024-02-04T11:00:08;9.10;96.40
33207;DHT22;19565;46.602;11.534;2024-02-04T11:02:40;9.10;96.50
33207;DHT22;19565;46.602;11.534;2024-02-04T11:05:15;9.20;96.50
33207;DHT22;19565;46.602;11.534;2024-02-04T11:07:44;9.20;96.10
33207;DHT22;19565;46.602;11.534;2024-02-04T11:10:13;9.30;95.80
33207;DHT22;19565;46.602;11.534;2024-02-04T11:12:42;9.40;95.50
33207;DHT22;19565;46.602;11.534;2024-02-04T11:15:14;9.50;95.50
33207;DHT22;19565;46.602;11.534;2024-02-04T11:17:57;9.60;94.90
33207;DHT22;19565;46.602;11.534;2024-02-04T11:20:57;9.60;94.60
33207;DHT22;19565;46.602;11.534;2024-02-04T11:23:37;9.80;94.20
33207;DHT22;19565;46.602;11.534;2024-02-04T11:26:10;9.90;94.10
33207;DHT22;19565;46.602;11.534;2024-02-04T11:28:39;10.00;94.30
33207;DHT22;19565;46.602;11.534;2024-02-04T11:31:14;10.00;94.50
33207;DHT22;19565;46.602;11.534;2024-02-04T11:33:43;10.00;94.40
33207;DHT22;19565;46.602;11.534;2024-02-04T11:36:14;9.90;94.60
33207;DHT22;19565;46.602;11.534;2024-02-04T11:38:48;9.90;94.70
33207;DHT22;19565;46.602;11.534;2024-02-04T11:41:22;9.90;94.80
33207;DHT22;19565;46.602;11.534;2024-02-04T11:43:52;9.90;94.90
33207;DHT22;19565;46.602;11.534;2024-02-04T11:46:28;9.80;95.20
33207;DHT22;19565;46.602;11.534;2024-02-04T11:49:00;9.80;94.90
33207;DHT22;19565;46.602;11.534;2024-02-04T11:51:30;9.90;94.50
33207;DHT22;19565;46.602;11.534;2024-02-04T11:53:59;10.00;94.20
33207;DHT22;19565;46.602;11.534;2024-02-04T11:56:31;10.00;94.20
33207;DHT22;19565;46.602;11.534;2024-02-04T11:59:00;10.10;94.10
33207;DHT22;19565;46.602;11.534;2024-02-04T12:01:31;10.10;93.90
33207;DHT22;19565;46.602;11.534;2024-02-04T12:04:09;10.10;94.80
33207;DHT22;19565;46.602;11.534;2024-02-04T12:09:22;10.20;95.50
33207;DHT22;19565;46.602;11.534;2024-02-04T12:11:51;10.30;95.40
33207;DHT22;19565;46.602;11.534;2024-02-04T12:14:21;10.30;95.20
33207;DHT22;19565;46.602;11.534;2024-02-04T12:16:50;10.30;95.30
33207;DHT22;19565;46.602;11.534;2024-02-04T12:19:18;10.40;95.80
33207;DHT22;19565;46.602;11.534;2024-02-04T12:21:48;10.40;95.60
33207;DHT22;19565;46.602;11.534;2024-02-04T12:24:17;10.50;95.40
33207;DHT22;19565;46.602;11.534;2024-02-04T12:26:45;10.50;95.30
33207;DHT22;19565;46.602;11.534;2024-02-04T12:29:14;10.50;95.20
33207;DHT22;19565;46.602;11.534;2024-02-04T12:31:43;10.60;95.40
33207;DHT22;19565;46.602;11.534;2024-02-04T12:34:13;10.60;95.50
33207;DHT22;19565;46.602;11.534;2024-02-04T12:36:41;10.70;95.30
33207;DHT22;19565;46.602;11.534;2024-02-04T12:39:16;10.70;94.90
33207;DHT22;19565;46.602;11.534;2024-02-04T12:41:51;10.80;94.90
33207;DHT22;19565;46.602;11.534;2024-02-04T12:44:19;10.80;94.90
33207;DHT22;19565;46.602;11.534;2024-02-04T12:46:50;10.80;95.30
33207;DHT22;19565;46.602;11.534;2024-02-04T12:49:20;10.90;95.00
33207;DHT22;19565;46.602;11.534;2024-02-04T12:51:49;11.00;95.10
33207;DHT22;19565;46.602;11.534;2024-02-04T12:54:21;11.00;94.90
33207;DHT22;19565;46.602;11.534;2024-02-04T12:56:50;11.00;94.60
33207;DHT22;19565;46.602;11.534;2024-02-04T12:59:26;11.00;94.70
33207;DHT22;19565;46.602;11.534;2024-02-04T13:01:56;11.00;94.20
33207;DHT22;19565;46.602;11.534;2024-02-04T13:04:25;11.10;94.80
33207;DHT22;19565;46.602;11.534;2024-02-04T13:06:53;11.10;95.40
33207;DHT22;19565;46.602;11.534;2024-02-04T13:09:23;11.20;95.90
33207;DHT22;19565;46.602;11.534;2024-02-04T13:11:51;11.20;95.40
33207;DHT22;19565;46.602;11.534;2024-02-04T13:14:20;11.20;95.30
33207;DHT22;19565;46.602;11.534;2024-02-04T13:16:49;11.20;94.70
33207;DHT22;19565;46.602;11.534;2024-02-04T13:19:17;11.20;93.80
33207;DHT22;19565;46.602;11.534;2024-02-04T13:21:46;11.30;93.30
33207;DHT22;19565;46.602;11.534;2024-02-04T13:24:14;11.30;93.40
33207;DHT22;19565;46.602;11.534;2024-02-04T13:26:44;11.40;93.50
33207;DHT22;19565;46.602;11.534;2024-02-04T13:29:12;11.40;93.90
33207;DHT22;19565;46.602;11.534;2024-02-04T13:31:40;11.40;93.50
33207;DHT22;19565;46.602;11.534;2024-02-04T13:34:09;11.40;92.70
33207;DHT22;19565;46.602;11.534;2024-02-04T13:36:37;11.50;92.40
33207;DHT22;19565;46.602;11.534;2024-02-04T13:39:05;11.50;92.70
33207;DHT22;19565;46.602;11.534;2024-02-04T13:41:34;11.60;93.60
33207;DHT22;19565;46.602;11.534;2024-02-04T13:44:04;11.60;93.10
33207;DHT22;19565;46.602;11.534;2024-02-04T13:46:35;11.60;93.10
33207;DHT22;19565;46.602;11.534;2024-02-04T13:49:03;11.70;93.00
33207;DHT22;19565;46.602;11.534;2024-02-04T13:51:31;11.80;92.40
33207;DHT22;19565;46.602;11.534;2024-02-04T13:54:10;11.80;92.40
33207;DHT22;19565;46.602;11.534;2024-02-04T13:56:44;11.80;93.20
33207;DHT22;19565;46.602;11.534;2024-02-04T13:59:14;11.70;93.60
33207;DHT22;19565;46.602;11.534;2024-02-04T14:01:43;11.70;93.40
33207;DHT22;19565;46.602;11.534;2024-02-04T14:04:11;11.70;93.20
33207;DHT22;19565;46.602;11.534;2024-02-04T14:06:40;11.60;93.50
33207;DHT22;19565;46.602;11.534;2024-02-04T14:09:08;11.60;94.10
33207;DHT22;19565;46.602;11.534;2024-02-04T14:11:39;11.60;93.70
33207;DHT22;19565;46.602;11.534;2024-02-04T14:14:08;11.60;93.30
33207;DHT22;19565;46.602;11.534;2024-02-04T14:16:37;11.60;93.80
33207;DHT22;19565;46.602;11.534;2024-02-04T14:19:06;11.50;94.10
33207;DHT22;19565;46.602;11.534;2024-02-04T14:21:34;11.50;93.70
33207;DHT22;19565;46.602;11.534;2024-02-04T14:24:03;11.50;93.70
33207;DHT22;19565;46.602;11.534;2024-02-04T14:26:32;11.50;93.40
33207;DHT22;19565;46.602;11.534;2024-02-04T14:29:00;11.50;92.70
33207;DHT22;19565;46.602;11.534;2024-02-04T14:31:28;11.60;92.50
33207;DHT22;19565;46.602;11.534;2024-02-04T14:33:58;11.60;92.20
33207;DHT22;19565;46.602;11.534;2024-02-04T14:36:26;11.60;92.80
33207;DHT22;19565;46.602;11.534;2024-02-04T14:38:55;11.60;93.50
33207;DHT22;19565;46.602;11.534;2024-02-04T14:41:24;11.50;93.40
33207;DHT22;19565;46.602;11.534;2024-02-04T14:43:52;11.60;93.50
33207;DHT22;19565;46.602;11.534;2024-02-04T14:46:20;11.50;93.90
33207;DHT22;19565;46.602;11.534;2024-02-04T14:48:49;11.50;93.70
33207;DHT22;19565;46.602;11.534;2024-02-04T14:51:18;11.50;93.40
33207;DHT22;19565;46.602;11.534;2024-02-04T14:53:47;11.60;93.10
33207;DHT22;19565;46.602;11.534;2024-02-04T14:56:15;11.50;93.40
33207;DHT22;19565;46.602;11.534;2024-02-04T14:58:43;11.50;93.80
33207;DHT22;19565;46.602;11.534;2024-02-04T15:01:11;11.40;93.70
33207;DHT22;19565;46.602;11.534;2024-02-04T15:03:40;11.40;93.80
33207;DHT22;19565;46.602;11.534;2024-02-04T15:06:09;11.40;94.00
33207;DHT22;19565;46.602;11.534;2024-02-04T15:08:38;11.40;94.20
33207;DHT22;19565;46.602;11.534;2024-02-04T15:11:06;11.30;94.60
33207;DHT22;19565;46.602;11.534;2024-02-04T15:13:35;11.30;94.00
33207;DHT22;19565;46.602;11.534;2024-02-04T15:16:04;11.20;94.10
33207;DHT22;19565;46.602;11.534;2024-02-04T15:18:34;11.20;94.70
33207;DHT22;19565;46.602;11.534;2024-02-04T15:21:03;11.10;95.00
33207;DHT22;19565;46.602;11.534;2024-02-04T15:23:32;11.10;95.00
33207;DHT22;19565;46.602;11.534;2024-02-04T15:26:04;11.00;95.10
33207;DHT22;19565;46.602;11.534;2024-02-04T15:28:35;11.00;95.40
33207;DHT22;19565;46.602;11.534;2024-02-04T15:31:04;10.90;95.60
33207;DHT22;19565;46.602;11.534;2024-02-04T15:33:33;10.90;95.60
33207;DHT22;19565;46.602;11.534;2024-02-04T15:36:01;10.80;95.70
33207;DHT22;19565;46.602;11.534;2024-02-04T15:38:30;10.80;96.10
33207;DHT22;19565;46.602;11.534;2024-02-04T15:40:58;10.70;96.00
33207;DHT22;19565;46.602;11.534;2024-02-04T15:43:27;10.70;96.10